Create Tblcommutelog Verified Points Advance Search
| # | Trip ID | Id Commuter | Trip Date | Trip Num | Current Lat | Current Lng | Delta Distance | Current Time | Activity | Activity Confidence | Current Speed | |
|---|---|---|---|---|---|---|---|---|---|---|---|---|
| 72441 | 251203_784692_16658002_1551 | 784692 | (not set) | (not set) | 38.80341309101 | -76.998954075149 | 5.3946 | 2025-12-03 16:01:24 | in_vehicle | 100 | 12.74061888115 | |
| 72442 | 251203_786113_16654392_1552 | 786113 | (not set) | (not set) | 38.801422198371 | -77.002786252419 | 5.6003 | 2025-12-03 16:01:38 | in_vehicle | 100 | 12.597566318274 | |
| 72443 | 251203_714319_16576229_1549 | 714319 | (not set) | (not set) | 38.83107202413 | -77.110660724269 | 7.3764 | 2025-12-03 16:01:44 | in_vehicle | 100 | 15.024989494577 | |
| 72444 | 251203_113832_1027663_1600 | 113832 | (not set) | (not set) | 39.045119496023 | -77.111143380869 | 0 | 2025-12-03 16:01:56 | still | 33 | -0.44703925898772 | |
| 72445 | 251203_714319_16576229_1549 | 714319 | (not set) | (not set) | 38.827487710999 | -77.118872964748 | 7.8845 | 2025-12-03 16:02:08 | in_vehicle | 100 | 15.118867738965 | |
| 72446 | 251203_789579_16658461_1449 | 789579 | (not set) | (not set) | 38.991186752267 | -77.459090904186 | 29.8732 | 2025-12-03 16:02:17 | in_vehicle | 100 | 7.3761477732975 | |
| 72447 | 251203_786113_16654392_1552 | 786113 | (not set) | (not set) | 38.794870176017 | -77.016894521133 | 6.4883 | 2025-12-03 16:02:28 | in_vehicle | 100 | 12.199701377775 | |
| 72448 | 251203_788105_16656667_1554 | 788105 | (not set) | (not set) | 38.902493955941 | -77.036505729161 | 0.8133 | 2025-12-03 16:02:39 | unknown | 100 | 2.3469561096856 | |
| 72449 | 251203_786113_16654392_1552 | 786113 | (not set) | (not set) | 38.793399869139 | -77.023823461305 | 6.8759 | 2025-12-03 16:02:52 | in_vehicle | 100 | 11.336915607929 | |
| 72450 | 251203_113832_1027663_1600 | 113832 | (not set) | (not set) | 39.048716254868 | -77.113079910912 | 1.3867 | 2025-12-03 16:02:58 | in_vehicle | 100 | 4.2424025677935 | |
| 72451 | 251203_113832_1027663_1600 | 113832 | (not set) | (not set) | 39.050011219037 | -77.113721843899 | 1.4825 | 2025-12-03 16:03:10 | in_vehicle | 100 | 6.6564145663272 | |
| 72452 | 251203_786113_16654392_1552 | 786113 | (not set) | (not set) | 38.792919391674 | -77.03119751969 | 7.2758 | 2025-12-03 16:03:18 | in_vehicle | 100 | 11.238566970951 | |
| 72453 | 251203_780809_16658575_1532 | 780809 | (not set) | (not set) | 38.921421208488 | -77.218082609562 | 11.6682 | 2025-12-03 16:03:25 | in_vehicle | 100 | 9.1732455944281 | |
| 72454 | 251203_789579_16658461_1449 | 789579 | (not set) | (not set) | 38.993654393608 | -77.464882422704 | 30.2519 | 2025-12-03 16:03:36 | in_vehicle | 100 | 7.8053054619257 | |
| 72455 | 251203_787832_16656357_1601 | 787832 | (not set) | (not set) | 39.034459931407 | -77.08784974027 | 2.5375 | 2025-12-03 16:03:44 | in_vehicle | 100 | 12.780852414459 | |
| 72456 | 251203_113832_1027663_1600 | 113832 | (not set) | (not set) | 39.056690175587 | -77.117605823726 | 1.4825 | 2025-12-03 16:03:52 | in_vehicle | 100 | -0.44703925898772 | |
| 72457 | 251203_786113_16654392_1552 | 786113 | (not set) | (not set) | 38.7928239488 | -77.040921620752 | 7.8009 | 2025-12-03 16:04:01 | in_vehicle | 100 | 8.5920945577441 | |
| 72458 | 251203_789172_16657968_1559 | 789172 | (not set) | (not set) | 38.909680099737 | -77.049067694391 | 0.2863 | 2025-12-03 16:04:11 | in_vehicle | 100 | 2.476597494792 | |
| 72459 | 251203_788673_16657360_1557 | 788673 | (not set) | (not set) | 38.8953384 | -77.0292437 | 0.2814 | 2025-12-03 16:04:18 | walking | 100 | 1.895446458108 | |
| 72460 | 251203_780809_16658575_1532 | 780809 | (not set) | (not set) | 38.920633594269 | -77.222040424396 | 11.8883 | 2025-12-03 16:04:22 | in_vehicle | 100 | 0 |